Time,TemperatureF,DewpointF,PressureIn,WindDirection,WindDirectionDegrees,WindSpeedMPH,WindSpeedGustMPH,Humidity,HourlyPrecipIn,Conditions,Clouds,dailyrainin,SoftwareType,DateUTC
2013-04-04 00:00:00,34.7,17.0,30.20,WSW,237,1.0,19.0,48,0.00,,---,0.00,VWS V14.01,2013-04-04 04:00:00,
2013-04-04 00:05:00,34.6,17.4,30.20,West,279,4.0,17.0,49,0.00,,---,0.00,VWS V14.01,2013-04-04 04:05:00,
2013-04-04 00:10:00,34.6,17.4,30.21,WNW,294,5.0,20.0,49,0.00,,---,0.00,VWS V14.01,2013-04-04 04:10:00,
2013-04-04 00:15:00,34.5,17.8,30.21,WNW,287,4.0,16.0,50,0.00,,---,0.00,VWS V14.01,2013-04-04 04:15:00,
2013-04-04 00:20:00,34.4,17.7,30.21,West,275,6.0,14.0,50,0.00,,---,0.00,VWS V14.01,2013-04-04 04:20:00,
2013-04-04 00:25:00,34.3,17.6,30.22,West,273,7.0,7.0,50,0.00,,---,0.00,VWS V14.01,2013-04-04 04:25:00,
2013-04-04 00:30:00,34.2,17.5,30.22,NW,306,12.0,14.0,50,0.00,,---,0.00,VWS V14.01,2013-04-04 04:30:00,
2013-04-04 00:35:00,34.2,18.0,30.22,West,270,5.0,13.0,51,0.00,,---,0.00,VWS V14.01,2013-04-04 04:35:00,
2013-04-04 00:40:00,34.1,17.9,30.22,NW,312,1.0,3.0,51,0.00,,---,0.00,VWS V14.01,2013-04-04 04:40:00,
2013-04-04 00:45:00,34.0,17.8,30.23,West,262,12.0,17.0,51,0.00,,---,0.00,VWS V14.01,2013-04-04 04:45:00,
2013-04-04 00:50:00,33.9,17.7,30.23,WSW,257,4.0,15.0,51,0.00,,---,0.00,VWS V14.01,2013-04-04 04:50:00,
2013-04-04 00:55:00,33.8,17.6,30.23,West,275,4.0,4.0,51,0.00,,---,0.00,VWS V14.01,2013-04-04 04:55:00,
2013-04-04 01:00:00,33.8,17.1,30.23,West,272,6.0,22.0,50,0.00,,---,0.00,VWS V14.01,2013-04-04 05:00:00,
2013-04-04 01:05:00,33.8,18.0,30.23,West,266,2.0,2.0,52,0.00,,---,0.00,VWS V14.01,2013-04-04 05:05:00,
2013-04-04 01:10:00,33.7,17.0,30.23,WSW,257,8.0,9.0,50,0.00,,---,0.00,VWS V14.01,2013-04-04 05:10:00,
2013-04-04 01:15:00,33.7,17.5,30.23,WNW,293,3.0,3.0,51,0.00,,---,0.00,VWS V14.01,2013-04-04 05:15:00,
2013-04-04 01:20:00,33.6,17.9,30.23,West,280,10.0,10.0,52,0.00,,---,0.00,VWS V14.01,2013-04-04 05:20:00,
2013-04-04 01:25:00,33.6,18.3,30.23,West,260,12.0,12.0,53,0.00,,---,0.00,VWS V14.01,2013-04-04 05:25:00,
2013-04-04 01:30:00,33.5,17.8,30.22,NW,308,11.0,13.0,52,0.00,,---,0.00,VWS V14.01,2013-04-04 05:30:00,
2013-04-04 01:35:00,33.4,17.7,30.22,WNW,299,0.0,15.0,52,0.00,,---,0.00,VWS V14.01,2013-04-04 05:35:00,
2013-04-04 01:40:00,33.4,17.7,30.22,WNW,297,5.0,10.0,52,0.00,,---,0.00,VWS V14.01,2013-04-04 05:40:00,
2013-04-04 01:45:00,33.3,18.0,30.22,NW,308,10.0,10.0,53,0.00,,---,0.00,VWS V14.01,2013-04-04 05:45:00,
2013-04-04 01:50:00,33.2,17.9,30.22,West,261,6.0,6.0,53,0.00,,---,0.00,VWS V14.01,2013-04-04 05:50:00,
2013-04-04 01:55:00,33.2,17.9,30.22,WNW,296,3.0,3.0,53,0.00,,---,0.00,VWS V14.01,2013-04-04 05:55:00,
2013-04-04 02:00:00,33.1,17.4,30.22,WNW,301,5.0,14.0,52,0.00,,---,0.00,VWS V14.01,2013-04-04 06:00:00,
2013-04-04 02:05:00,33.0,17.3,30.22,West,270,1.0,4.0,52,0.00,,---,0.00,VWS V14.01,2013-04-04 06:05:00,
2013-04-04 02:10:00,33.1,17.8,30.22,WNW,285,6.0,7.0,53,0.00,,---,0.00,VWS V14.01,2013-04-04 06:10:00,
2013-04-04 02:15:00,33.1,17.8,30.22,NW,319,4.0,11.0,53,0.00,,---,0.00,VWS V14.01,2013-04-04 06:15:00,
2013-04-04 02:20:00,33.1,18.3,30.22,WNW,288,5.0,9.0,54,0.00,,---,0.00,VWS V14.01,2013-04-04 06:20:00,
2013-04-04 02:25:00,33.0,17.3,30.22,NW,318,13.0,17.0,52,0.00,,---,0.00,VWS V14.01,2013-04-04 06:25:00,
2013-04-04 02:30:00,33.0,18.2,30.22,WNW,298,7.0,10.0,54,0.00,,---,0.00,VWS V14.01,2013-04-04 06:30:00,
2013-04-04 02:35:00,32.9,17.7,30.22,NW,314,6.0,6.0,53,0.00,,---,0.00,VWS V14.01,2013-04-04 06:35:00,
2013-04-04 02:40:00,32.8,17.6,30.21,NW,308,10.0,10.0,53,0.00,,---,0.00,VWS V14.01,2013-04-04 06:40:00,
2013-04-04 02:45:00,32.8,17.6,30.21,WNW,301,11.0,16.0,53,0.00,,---,0.00,VWS V14.01,2013-04-04 06:45:00,
2013-04-04 02:50:00,32.8,17.1,30.21,WNW,300,16.0,20.0,52,0.00,,---,0.00,VWS V14.01,2013-04-04 06:50:00,
2013-04-04 02:55:00,32.7,17.0,30.21,NW,316,7.0,10.0,52,0.00,,---,0.00,VWS V14.01,2013-04-04 06:55:00,
2013-04-04 03:00:00,32.6,17.4,30.21,NW,307,10.0,14.0,53,0.00,,---,0.00,VWS V14.01,2013-04-04 07:00:00,
2013-04-04 03:05:00,32.6,17.4,30.21,NW,309,5.0,11.0,53,0.00,,---,0.00,VWS V14.01,2013-04-04 07:05:00,
2013-04-04 03:10:00,32.6,16.9,30.21,NW,306,10.0,15.0,52,0.00,,---,0.00,VWS V14.01,2013-04-04 07:10:00,
2013-04-04 03:16:00,32.5,17.3,30.21,NW,310,5.0,8.0,53,0.00,,---,0.00,VWS V14.01,2013-04-04 07:16:00,
2013-04-04 03:21:00,32.4,17.2,30.22,WNW,287,10.0,11.0,53,0.00,,---,0.00,VWS V14.01,2013-04-04 07:21:00,
2013-04-04 03:26:00,32.3,17.1,30.22,WNW,297,4.0,6.0,53,0.00,,---,0.00,VWS V14.01,2013-04-04 07:26:00,
2013-04-04 03:31:00,32.3,17.5,30.22,NW,310,12.0,12.0,54,0.00,,---,0.00,VWS V14.01,2013-04-04 07:31:00,
2013-04-04 03:36:00,32.2,17.0,30.22,WNW,300,2.0,9.0,53,0.00,,---,0.00,VWS V14.01,2013-04-04 07:36:00,
2013-04-04 03:41:00,32.1,17.3,30.22,NW,313,7.0,9.0,54,0.00,,---,0.00,VWS V14.01,2013-04-04 07:41:00,
2013-04-04 03:46:00,32.2,17.9,30.23,NW,322,9.0,13.0,55,0.00,,---,0.00,VWS V14.01,2013-04-04 07:46:00,
2013-04-04 03:51:00,32.2,17.9,30.22,WNW,292,6.0,10.0,55,0.00,,---,0.00,VWS V14.01,2013-04-04 07:51:00,
2013-04-04 03:55:00,32.1,17.3,30.22,WNW,295,10.0,15.0,54,0.00,,---,0.00,VWS V14.01,2013-04-04 07:55:00,
2013-04-04 04:01:00,32.1,17.3,30.22,WNW,291,4.0,9.0,54,0.00,,---,0.00,VWS V14.01,2013-04-04 08:01:00,
2013-04-04 04:06:00,32.1,17.3,30.22,NW,307,4.0,6.0,54,0.00,,---,0.00,VWS V14.01,2013-04-04 08:06:00,
2013-04-04 04:11:00,32.1,17.3,30.22,NW,308,4.0,14.0,54,0.00,,---,0.00,VWS V14.01,2013-04-04 08:11:00,
2013-04-04 04:16:00,32.1,17.3,30.22,NW,308,9.0,13.0,54,0.00,,---,0.00,VWS V14.01,2013-04-04 08:16:00,
2013-04-04 04:21:00,32.1,17.3,30.22,NW,310,7.0,11.0,54,0.00,,---,0.00,VWS V14.01,2013-04-04 08:21:00,
2013-04-04 04:26:00,32.0,18.1,30.21,NW,325,12.0,12.0,56,0.00,,---,0.00,VWS V14.01,2013-04-04 08:26:00,
2013-04-04 04:31:00,32.1,18.6,30.22,NNW,328,10.0,11.0,57,0.00,,---,0.00,VWS V14.01,2013-04-04 08:31:00,
2013-04-04 04:36:00,32.1,18.2,30.22,NW,306,3.0,14.0,56,0.00,,---,0.00,VWS V14.01,2013-04-04 08:36:00,
2013-04-04 04:41:00,32.0,17.7,30.23,NW,323,1.0,9.0,55,0.00,,---,0.00,VWS V14.01,2013-04-04 08:41:00,
2013-04-04 04:46:00,31.8,17.5,30.23,WNW,289,6.0,14.0,55,0.00,,---,0.00,VWS V14.01,2013-04-04 08:46:00,
2013-04-04 04:51:00,31.7,17.4,30.23,NW,310,6.0,13.0,55,0.00,,---,0.00,VWS V14.01,2013-04-04 08:51:00,
2013-04-04 04:57:00,31.6,17.3,30.23,WNW,289,4.0,10.0,55,0.00,,---,0.00,VWS V14.01,2013-04-04 08:57:00,
2013-04-04 05:02:00,31.5,17.6,30.24,WNW,295,5.0,11.0,56,0.00,,---,0.00,VWS V14.01,2013-04-04 09:02:00,
2013-04-04 05:07:00,31.5,17.6,30.24,WNW,295,5.0,10.0,56,0.00,,---,0.00,VWS V14.01,2013-04-04 09:07:00,
2013-04-04 05:12:00,31.4,17.5,30.24,WNW,288,7.0,11.0,56,0.00,,---,0.00,VWS V14.01,2013-04-04 09:12:00,
2013-04-04 05:17:00,31.3,18.2,30.26,West,274,3.0,10.0,58,0.00,,---,0.00,VWS V14.01,2013-04-04 09:17:00,
2013-04-04 05:22:00,31.3,18.6,30.26,WNW,303,3.0,7.0,59,0.00,,---,0.00,VWS V14.01,2013-04-04 09:22:00,
2013-04-04 05:27:00,31.3,18.6,30.26,WNW,297,3.0,8.0,59,0.00,,---,0.00,VWS V14.01,2013-04-04 09:27:00,
2013-04-04 05:32:00,31.3,18.6,30.27,West,278,3.0,12.0,59,0.00,,---,0.00,VWS V14.01,2013-04-04 09:32:00,
2013-04-04 05:37:00,31.3,18.6,30.27,NW,304,4.0,12.0,59,0.00,,---,0.00,VWS V14.01,2013-04-04 09:37:00,
2013-04-04 05:42:00,31.3,18.6,30.27,WNW,292,5.0,7.0,59,0.00,,---,0.00,VWS V14.01,2013-04-04 09:42:00,
2013-04-04 05:47:00,31.2,19.3,30.28,West,279,2.0,3.0,61,0.00,,---,0.00,VWS V14.01,2013-04-04 09:47:00,
2013-04-04 05:52:00,31.2,19.0,30.28,West,277,5.0,6.0,60,0.00,,---,0.00,VWS V14.01,2013-04-04 09:52:00,
2013-04-04 05:57:00,31.2,19.3,30.28,WNW,285,2.0,9.0,61,0.00,,---,0.00,VWS V14.01,2013-04-04 09:57:00,
2013-04-04 06:02:00,31.2,18.5,30.28,West,260,3.0,9.0,59,0.00,,---,0.00,VWS V14.01,2013-04-04 10:02:00,
2013-04-04 06:07:00,31.1,18.9,30.28,WNW,288,5.0,6.0,60,0.00,,---,0.00,VWS V14.01,2013-04-04 10:07:00,
2013-04-04 06:12:00,31.1,18.9,30.29,West,272,1.0,9.0,60,0.00,,---,0.00,VWS V14.01,2013-04-04 10:12:00,
2013-04-04 06:17:00,31.1,19.2,30.30,WSW,256,7.0,10.0,61,0.00,,---,0.00,VWS V14.01,2013-04-04 10:17:00,
2013-04-04 06:22:00,31.2,19.3,30.31,WSW,257,4.0,15.0,61,0.00,,---,0.00,VWS V14.01,2013-04-04 10:22:00,
2013-04-04 06:27:00,31.3,19.4,30.31,WSW,252,3.0,12.0,61,0.00,,---,0.00,VWS V14.01,2013-04-04 10:27:00,
2013-04-04 06:32:00,31.3,19.4,30.32,West,277,10.0,12.0,61,0.00,,---,0.00,VWS V14.01,2013-04-04 10:32:00,
2013-04-04 06:37:00,31.4,19.9,30.32,West,264,2.0,10.0,62,0.00,,---,0.00,VWS V14.01,2013-04-04 10:37:00,
2013-04-04 06:42:00,31.4,19.5,30.32,West,260,2.0,6.0,61,0.00,,---,0.00,VWS V14.01,2013-04-04 10:42:00,
2013-04-04 06:47:00,31.4,19.5,30.32,WSW,258,6.0,11.0,61,0.00,,---,0.00,VWS V14.01,2013-04-04 10:47:00,
2013-04-04 06:52:00,31.5,20.0,30.33,West,262,4.0,10.0,62,0.00,,---,0.00,VWS V14.01,2013-04-04 10:52:00,
2013-04-04 06:57:00,31.7,20.2,30.33,WSW,253,9.0,11.0,62,0.00,,---,0.00,VWS V14.01,2013-04-04 10:57:00,
2013-04-04 07:02:00,32.0,20.5,30.33,West,260,7.0,11.0,62,0.00,,---,0.00,VWS V14.01,2013-04-04 11:02:00,
2013-04-04 07:07:00,32.3,20.4,30.33,West,265,3.0,10.0,61,0.00,,---,0.00,VWS V14.01,2013-04-04 11:07:00,
2013-04-04 07:12:00,32.5,20.6,30.34,SW,224,0.0,11.0,61,0.00,,---,0.00,VWS V14.01,2013-04-04 11:12:00,
2013-04-04 07:17:00,32.8,20.5,30.34,WNW,284,2.0,10.0,60,0.00,,---,0.00,VWS V14.01,2013-04-04 11:17:00,
2013-04-04 07:22:00,32.9,20.9,30.33,WNW,282,1.0,7.0,61,0.00,,---,0.00,VWS V14.01,2013-04-04 11:22:00,
2013-04-04 07:27:00,33.2,20.4,30.33,WNW,297,2.0,13.0,59,0.00,,---,0.00,VWS V14.01,2013-04-04 11:27:00,
2013-04-04 07:32:00,33.4,21.0,30.34,WNW,288,3.0,10.0,60,0.00,,---,0.00,VWS V14.01,2013-04-04 11:32:00,
2013-04-04 07:37:00,33.7,20.9,30.33,WNW,303,1.0,7.0,59,0.00,,---,0.00,VWS V14.01,2013-04-04 11:37:00,
2013-04-04 07:42:00,33.9,20.7,30.33,WNW,293,0.0,12.0,58,0.00,,---,0.00,VWS V14.01,2013-04-04 11:42:00,
2013-04-04 07:48:00,34.3,21.1,30.33,West,275,1.0,5.0,58,0.00,,---,0.00,VWS V14.01,2013-04-04 11:48:00,
2013-04-04 07:53:00,34.6,21.0,30.34,West,269,1.0,10.0,57,0.00,,---,0.00,VWS V14.01,2013-04-04 11:53:00,
2013-04-04 07:58:00,34.8,20.7,30.34,West,269,6.0,11.0,56,0.00,,---,0.00,VWS V14.01,2013-04-04 11:58:00,
2013-04-04 08:03:00,35.1,21.8,30.34,WSW,257,5.0,11.0,58,0.00,,---,0.00,VWS V14.01,2013-04-04 12:03:00,
2013-04-04 08:08:00,35.3,20.8,30.35,West,264,1.0,10.0,55,0.00,,---,0.00,VWS V14.01,2013-04-04 12:08:00,
2013-04-04 08:13:00,35.7,21.6,30.35,WNW,282,2.0,9.0,56,0.00,,---,0.00,VWS V14.01,2013-04-04 12:13:00,
2013-04-04 08:18:00,36.0,20.5,30.35,West,261,12.0,12.0,53,0.00,,---,0.00,VWS V14.01,2013-04-04 12:18:00,
2013-04-04 08:23:00,36.0,20.1,30.35,WNW,291,0.0,11.0,52,0.00,,---,0.00,VWS V14.01,2013-04-04 12:23:00,
2013-04-04 08:28:00,36.3,20.4,30.35,West,273,1.0,13.0,52,0.00,,---,0.00,VWS V14.01,2013-04-04 12:28:00,
2013-04-04 08:33:00,36.5,21.0,30.35,WSW,251,4.0,10.0,53,0.00,,---,0.00,VWS V14.01,2013-04-04 12:33:00,
2013-04-04 08:38:00,36.9,20.5,30.35,WNW,284,2.0,9.0,51,0.00,,---,0.00,VWS V14.01,2013-04-04 12:38:00,
2013-04-04 08:43:00,37.1,19.7,30.35,West,280,1.0,14.0,49,0.00,,---,0.00,VWS V14.01,2013-04-04 12:43:00,
2013-04-04 08:48:00,37.3,19.9,30.35,WNW,295,1.0,9.0,49,0.00,,---,0.00,VWS V14.01,2013-04-04 12:48:00,
2013-04-04 08:53:00,37.6,19.7,30.35,West,276,10.0,12.0,48,0.00,,---,0.00,VWS V14.01,2013-04-04 12:53:00,
2013-04-04 08:58:00,37.9,20.5,30.35,WSW,246,3.0,12.0,49,0.00,,---,0.00,VWS V14.01,2013-04-04 12:58:00,
2013-04-04 09:03:00,38.2,20.2,30.35,WNW,286,4.0,11.0,48,0.00,,---,0.00,VWS V14.01,2013-04-04 13:03:00,
2013-04-04 09:08:00,38.1,19.2,30.35,WNW,285,6.0,12.0,46,0.00,,---,0.00,VWS V14.01,2013-04-04 13:08:00,
2013-04-04 09:13:00,38.1,19.7,30.35,West,270,7.0,12.0,47,0.00,,---,0.00,VWS V14.01,2013-04-04 13:13:00,
2013-04-04 09:18:00,38.3,19.4,30.34,WNW,285,6.0,10.0,46,0.00,,---,0.00,VWS V14.01,2013-04-04 13:18:00,
2013-04-04 09:23:00,38.3,18.3,30.34,WNW,295,1.0,11.0,44,0.00,,---,0.00,VWS V14.01,2013-04-04 13:23:00,
2013-04-04 09:28:00,38.5,19.0,30.34,West,281,3.0,10.0,45,0.00,,---,0.00,VWS V14.01,2013-04-04 13:28:00,
2013-04-04 09:33:00,38.8,19.8,30.34,WSW,239,5.0,11.0,46,0.00,,---,0.00,VWS V14.01,2013-04-04 13:33:00,
2013-04-04 09:38:00,39.2,19.7,30.35,West,281,3.0,11.0,45,0.00,,---,0.00,VWS V14.01,2013-04-04 13:38:00,
2013-04-04 09:43:00,39.4,19.3,30.35,WNW,287,2.0,10.0,44,0.00,,---,0.00,VWS V14.01,2013-04-04 13:43:00,
2013-04-04 09:48:00,39.6,20.0,30.34,WNW,283,6.0,12.0,45,0.00,,---,0.00,VWS V14.01,2013-04-04 13:48:00,
2013-04-04 09:53:00,39.8,19.1,30.34,West,268,2.0,9.0,43,0.00,,---,0.00,VWS V14.01,2013-04-04 13:53:00,
2013-04-04 09:59:00,39.8,18.6,30.34,WNW,285,5.0,13.0,42,0.00,,---,0.00,VWS V14.01,2013-04-04 13:59:00,
2013-04-04 10:04:00,39.9,19.2,30.34,West,268,4.0,10.0,43,0.00,,---,0.00,VWS V14.01,2013-04-04 14:04:00,
2013-04-04 10:09:00,40.0,18.8,30.34,NW,310,4.0,8.0,42,0.00,,---,0.00,VWS V14.01,2013-04-04 14:09:00,
2013-04-04 10:14:00,40.0,18.8,30.34,West,274,3.0,12.0,42,0.00,,---,0.00,VWS V14.01,2013-04-04 14:14:00,
2013-04-04 10:19:00,40.5,19.2,30.33,WSW,258,6.0,11.0,42,0.00,,---,0.00,VWS V14.01,2013-04-04 14:19:00,
2013-04-04 10:24:00,40.8,18.9,30.33,West,274,5.0,9.0,41,0.00,,---,0.00,VWS V14.01,2013-04-04 14:24:00,
2013-04-04 10:29:00,41.0,19.7,30.33,West,276,0.0,7.0,42,0.00,,---,0.00,VWS V14.01,2013-04-04 14:29:00,
2013-04-04 10:34:00,40.9,18.5,30.33,West,280,4.0,10.0,40,0.00,,---,0.00,VWS V14.01,2013-04-04 14:34:00,
2013-04-04 10:39:00,41.0,18.5,30.33,WSW,248,3.0,11.0,40,0.00,,---,0.00,VWS V14.01,2013-04-04 14:39:00,
2013-04-04 10:44:00,41.1,17.4,30.33,WSW,248,5.0,9.0,38,0.00,,---,0.00,VWS V14.01,2013-04-04 14:44:00,
2013-04-04 10:49:00,41.5,19.0,30.32,WSW,247,11.0,12.0,40,0.00,,---,0.00,VWS V14.01,2013-04-04 14:49:00,
2013-04-04 10:54:00,41.4,17.7,30.32,West,267,5.0,13.0,38,0.00,,---,0.00,VWS V14.01,2013-04-04 14:54:00,
2013-04-04 10:59:00,41.5,18.4,30.32,WSW,257,3.0,12.0,39,0.00,,---,0.00,VWS V14.01,2013-04-04 14:59:00,
2013-04-04 11:04:00,41.9,18.8,30.32,WSW,251,5.0,10.0,39,0.00,,---,0.00,VWS V14.01,2013-04-04 15:04:00,
2013-04-04 11:09:00,41.9,18.8,30.32,WSW,251,10.0,13.0,39,0.00,,---,0.00,VWS V14.01,2013-04-04 15:09:00,
2013-04-04 11:14:00,41.9,17.5,30.31,WSW,253,1.0,11.0,37,0.00,,---,0.00,VWS V14.01,2013-04-04 15:14:00,
2013-04-04 11:19:00,42.1,19.5,30.31,West,261,5.0,8.0,40,0.00,,---,0.00,VWS V14.01,2013-04-04 15:19:00,
2013-04-04 11:24:00,42.5,18.7,30.31,WSW,242,4.0,16.0,38,0.00,,---,0.00,VWS V14.01,2013-04-04 15:24:00,
2013-04-04 11:29:00,42.1,17.7,30.31,South,191,2.0,11.0,37,0.00,,---,0.00,VWS V14.01,2013-04-04 15:29:00,
2013-04-04 11:34:00,41.5,17.8,30.31,SW,218,4.0,13.0,38,0.00,,---,0.00,VWS V14.01,2013-04-04 15:34:00,
2013-04-04 11:39:00,41.6,17.9,30.31,SW,225,4.0,12.0,38,0.00,,---,0.00,VWS V14.01,2013-04-04 15:39:00,
2013-04-04 11:44:00,41.8,18.1,30.30,SW,214,9.0,9.0,38,0.00,,---,0.00,VWS V14.01,2013-04-04 15:44:00,
2013-04-04 11:49:00,41.6,18.5,30.30,SSW,206,2.0,13.0,39,0.00,,---,0.00,VWS V14.01,2013-04-04 15:49:00,
2013-04-04 11:54:00,41.8,24.5,30.30,SW,223,3.0,11.0,50,0.00,,---,0.00,VWS V14.01,2013-04-04 15:54:00,
2013-04-04 12:00:00,42.1,26.2,30.30,SW,226,7.0,13.0,53,0.00,,---,0.00,VWS V14.01,2013-04-04 16:00:00,
2013-04-04 12:05:00,40.8,24.5,30.30,SW,224,7.0,15.0,52,0.00,,---,0.00,VWS V14.01,2013-04-04 16:05:00,
2013-04-04 12:10:00,40.0,25.6,30.30,SSW,212,7.0,22.0,56,0.00,,---,0.00,VWS V14.01,2013-04-04 16:10:00,
2013-04-04 12:15:00,39.8,25.0,30.30,SW,216,7.0,15.0,55,0.00,,---,0.00,VWS V14.01,2013-04-04 16:15:00,
2013-04-04 12:20:00,39.8,25.4,30.30,SW,224,10.0,17.0,56,0.00,,---,0.00,VWS V14.01,2013-04-04 16:20:00,
2013-04-04 12:25:00,39.8,24.5,30.30,SW,216,14.0,16.0,54,0.00,,---,0.00,VWS V14.01,2013-04-04 16:25:00,
2013-04-04 12:30:00,39.8,25.8,30.29,WSW,247,11.0,19.0,57,0.00,,---,0.00,VWS V14.01,2013-04-04 16:30:00,
2013-04-04 12:35:00,39.9,25.5,30.29,SW,225,12.0,19.0,56,0.00,,---,0.00,VWS V14.01,2013-04-04 16:35:00,
2013-04-04 12:40:00,39.8,25.0,30.29,SSW,208,9.0,20.0,55,0.00,,---,0.00,VWS V14.01,2013-04-04 16:40:00,
2013-04-04 12:45:00,40.3,27.1,30.28,WSW,243,7.0,19.0,59,0.00,,---,0.00,VWS V14.01,2013-04-04 16:45:00,
2013-04-04 12:50:00,40.4,24.6,30.28,SSW,206,7.0,23.0,53,0.00,,---,0.00,VWS V14.01,2013-04-04 16:50:00,
2013-04-04 12:55:00,40.0,26.0,30.28,SSW,213,9.0,21.0,57,0.00,,---,0.00,VWS V14.01,2013-04-04 16:55:00,
2013-04-04 13:00:00,40.0,26.8,30.29,SSW,194,5.0,16.0,59,0.00,,---,0.00,VWS V14.01,2013-04-04 17:00:00,
2013-04-04 13:05:00,40.1,26.9,30.29,SSW,210,16.0,19.0,59,0.00,,---,0.00,VWS V14.01,2013-04-04 17:05:00,
2013-04-04 13:10:00,40.2,26.2,30.29,South,178,11.0,21.0,57,0.00,,---,0.00,VWS V14.01,2013-04-04 17:10:00,
2013-04-04 13:15:00,39.8,26.7,30.29,SW,222,9.0,25.0,59,0.00,,---,0.00,VWS V14.01,2013-04-04 17:15:00,
2013-04-04 13:20:00,39.9,27.6,30.29,SW,218,9.0,22.0,61,0.00,,---,0.00,VWS V14.01,2013-04-04 17:20:00,
2013-04-04 13:25:00,39.8,26.7,30.29,SSW,204,13.0,23.0,59,0.00,,---,0.00,VWS V14.01,2013-04-04 17:25:00,
2013-04-04 13:30:00,39.8,25.8,30.29,SW,225,15.0,20.0,57,0.00,,---,0.00,VWS V14.01,2013-04-04 17:30:00,
2013-04-04 13:35:00,40.4,26.4,30.28,South,189,4.0,27.0,57,0.00,,---,0.00,VWS V14.01,2013-04-04 17:35:00,
2013-04-04 13:40:00,40.5,28.1,30.28,SSW,206,9.0,22.0,61,0.00,,---,0.00,VWS V14.01,2013-04-04 17:40:00,
2013-04-04 13:45:00,40.7,27.9,30.28,SW,235,15.0,15.0,60,0.00,,---,0.00,VWS V14.01,2013-04-04 17:45:00,
2013-04-04 13:50:00,40.4,27.2,30.28,SW,220,10.0,25.0,59,0.00,,---,0.00,VWS V14.01,2013-04-04 17:50:00,
2013-04-04 13:55:00,40.5,27.3,30.28,SW,234,10.0,13.0,59,0.00,,---,0.00,VWS V14.01,2013-04-04 17:55:00,
2013-04-04 14:00:00,40.5,27.3,30.28,SW,214,10.0,15.0,59,0.00,,---,0.00,VWS V14.01,2013-04-04 18:00:00,
2013-04-04 14:05:00,40.6,27.4,30.28,SSW,195,7.0,10.0,59,0.00,,---,0.00,VWS V14.01,2013-04-04 18:05:00,
2013-04-04 14:10:00,40.8,27.2,30.27,SW,223,7.0,11.0,58,0.00,,---,0.00,VWS V14.01,2013-04-04 18:10:00,
2013-04-04 14:15:00,40.7,26.7,30.27,SW,225,9.0,12.0,57,0.00,,---,0.00,VWS V14.01,2013-04-04 18:15:00,
2013-04-04 14:20:00,40.5,27.3,30.27,SSW,205,6.0,19.0,59,0.00,,---,0.00,VWS V14.01,2013-04-04 18:20:00,
2013-04-04 14:25:00,40.6,26.6,30.27,SSW,204,10.0,16.0,57,0.00,,---,0.00,VWS V14.01,2013-04-04 18:25:00,
2013-04-04 14:30:00,40.9,28.1,30.27,SW,216,12.0,12.0,60,0.00,,---,0.00,VWS V14.01,2013-04-04 18:30:00,
2013-04-04 14:35:00,40.7,26.7,30.27,SW,214,19.0,19.0,57,0.00,,---,0.00,VWS V14.01,2013-04-04 18:35:00,
2013-04-04 14:40:00,40.6,26.6,30.27,SSW,196,9.0,15.0,57,0.00,,---,0.00,VWS V14.01,2013-04-04 18:40:00,
2013-04-04 14:45:00,40.8,26.8,30.26,SW,222,5.0,15.0,57,0.00,,---,0.00,VWS V14.01,2013-04-04 18:45:00,
2013-04-04 14:50:00,41.4,26.5,30.26,SW,218,9.0,11.0,55,0.00,,---,0.00,VWS V14.01,2013-04-04 18:50:00,
2013-04-04 14:55:00,42.0,27.0,30.26,SSW,209,9.0,11.0,55,0.00,,---,0.00,VWS V14.01,2013-04-04 18:55:00,
2013-04-04 15:00:00,41.7,26.7,30.26,SW,214,7.0,12.0,55,0.00,,---,0.00,VWS V14.01,2013-04-04 19:00:00,
2013-04-04 15:05:00,41.5,27.0,30.25,SSW,213,10.0,10.0,56,0.00,,---,0.00,VWS V14.01,2013-04-04 19:05:00,
2013-04-04 15:10:00,41.5,30.6,30.25,SSW,195,11.0,13.0,65,0.00,,---,0.00,VWS V14.01,2013-04-04 19:10:00,
2013-04-04 15:15:00,41.4,30.5,30.24,SSW,210,13.0,14.0,65,0.00,,---,0.00,VWS V14.01,2013-04-04 19:15:00,
2013-04-04 15:20:00,41.2,30.7,30.24,SW,232,7.0,12.0,66,0.00,,---,0.00,VWS V14.01,2013-04-04 19:20:00,
2013-04-04 15:25:00,41.3,31.5,30.24,SSW,207,5.0,10.0,68,0.00,,---,0.00,VWS V14.01,2013-04-04 19:25:00,
2013-04-04 15:30:00,41.3,31.2,30.24,SW,215,15.0,15.0,67,0.00,,---,0.00,VWS V14.01,2013-04-04 19:30:00,
2013-04-04 15:36:00,41.6,31.5,30.24,SSW,193,5.0,17.0,67,0.00,,---,0.00,VWS V14.01,2013-04-04 19:36:00,
2013-04-04 15:41:00,41.5,31.0,30.23,SSW,192,5.0,16.0,66,0.00,,---,0.00,VWS V14.01,2013-04-04 19:41:00,
2013-04-04 15:46:00,41.1,30.6,30.22,SW,216,6.0,21.0,66,0.00,,---,0.00,VWS V14.01,2013-04-04 19:46:00,
2013-04-04 15:51:00,41.1,31.0,30.22,SSW,200,12.0,15.0,67,0.00,,---,0.00,VWS V14.01,2013-04-04 19:51:00,
2013-04-04 15:56:00,40.9,31.2,30.22,SSW,212,10.0,18.0,68,0.00,,---,0.00,VWS V14.01,2013-04-04 19:56:00,
2013-04-04 16:01:00,40.9,31.5,30.21,SSW,209,9.0,17.0,69,0.00,,---,0.00,VWS V14.01,2013-04-04 20:01:00,
2013-04-04 16:06:00,40.8,31.1,30.21,SW,229,15.0,17.0,68,0.00,,---,0.00,VWS V14.01,2013-04-04 20:06:00,
2013-04-04 16:11:00,41.0,31.6,30.21,South,184,2.0,21.0,69,0.00,,---,0.00,VWS V14.01,2013-04-04 20:11:00,
2013-04-04 16:16:00,41.3,32.3,30.21,SSW,208,3.0,18.0,70,0.00,,---,0.00,VWS V14.01,2013-04-04 20:16:00,
2013-04-04 16:21:00,40.7,31.7,30.21,SSW,206,14.0,22.0,70,0.00,,---,0.00,VWS V14.01,2013-04-04 20:21:00,
2013-04-04 16:26:00,40.6,32.3,30.21,SSW,211,17.0,17.0,72,0.00,,---,0.00,VWS V14.01,2013-04-04 20:26:00,
2013-04-04 16:32:00,40.7,32.4,30.21,SSW,212,13.0,19.0,72,0.00,,---,0.00,VWS V14.01,2013-04-04 20:32:00,
2013-04-04 16:37:00,40.6,32.3,30.21,SSW,212,20.0,20.0,72,0.00,,---,0.00,VWS V14.01,2013-04-04 20:37:00,
2013-04-04 16:42:00,40.5,32.2,30.21,SSW,208,4.0,17.0,72,0.00,,---,0.00,VWS V14.01,2013-04-04 20:42:00,
2013-04-04 16:47:00,40.6,32.0,30.21,WSW,240,15.0,23.0,71,0.00,,---,0.00,VWS V14.01,2013-04-04 20:47:00,
2013-04-04 16:52:00,40.8,32.1,30.20,SW,223,10.0,19.0,71,0.00,,---,0.00,VWS V14.01,2013-04-04 20:52:00,
2013-04-04 16:57:00,40.9,32.9,30.20,SW,217,12.0,15.0,73,0.00,,---,0.00,VWS V14.01,2013-04-04 20:57:00,
2013-04-04 17:02:00,40.9,31.9,30.20,SSW,198,10.0,20.0,70,0.00,,---,0.00,VWS V14.01,2013-04-04 21:02:00,
2013-04-04 17:07:00,40.8,32.5,30.20,SSW,204,9.0,15.0,72,0.00,,---,0.00,VWS V14.01,2013-04-04 21:07:00,
2013-04-04 17:12:00,40.4,32.4,30.20,South,184,10.0,23.0,73,0.00,,---,0.00,VWS V14.01,2013-04-04 21:12:00,
2013-04-04 17:17:00,40.3,32.7,30.19,SW,218,13.0,19.0,74,0.00,,---,0.00,VWS V14.01,2013-04-04 21:17:00,
2013-04-04 17:22:00,40.2,31.9,30.19,SSW,197,14.0,17.0,72,0.00,,---,0.00,VWS V14.01,2013-04-04 21:22:00,
2013-04-04 17:27:00,40.1,31.8,30.19,SSW,211,13.0,15.0,72,0.00,,---,0.00,VWS V14.01,2013-04-04 21:27:00,
2013-04-04 17:32:00,40.2,32.2,30.20,SW,214,6.0,22.0,73,0.00,,---,0.00,VWS V14.01,2013-04-04 21:32:00,
2013-04-04 17:37:00,40.3,32.3,30.20,SW,216,4.0,13.0,73,0.00,,---,0.00,VWS V14.01,2013-04-04 21:37:00,
2013-04-04 17:42:00,40.3,32.0,30.20,South,184,2.0,19.0,72,0.00,,---,0.00,VWS V14.01,2013-04-04 21:42:00,
2013-04-04 17:47:00,40.4,32.4,30.19,South,172,6.0,16.0,73,0.00,,---,0.00,VWS V14.01,2013-04-04 21:47:00,
2013-04-04 17:52:00,40.3,32.3,30.19,South,188,4.0,16.0,73,0.00,,---,0.00,VWS V14.01,2013-04-04 21:52:00,
2013-04-04 17:57:00,40.2,32.2,30.19,South,189,11.0,19.0,73,0.00,,---,0.00,VWS V14.01,2013-04-04 21:57:00,
2013-04-04 18:02:00,40.1,32.2,30.19,SW,216,7.0,19.0,73,0.00,,---,0.00,VWS V14.01,2013-04-04 22:02:00,
2013-04-04 18:07:00,40.0,31.7,30.19,SSW,199,11.0,17.0,72,0.00,,---,0.00,VWS V14.01,2013-04-04 22:07:00,
2013-04-04 18:12:00,39.7,31.8,30.19,SSW,212,10.0,16.0,73,0.00,,---,0.00,VWS V14.01,2013-04-04 22:12:00,
2013-04-04 18:17:00,39.7,32.4,30.19,SW,218,10.0,13.0,75,0.00,,---,0.00,VWS V14.01,2013-04-04 22:17:00,
2013-04-04 18:22:00,39.6,31.7,30.19,SSW,201,9.0,14.0,73,0.00,,---,0.00,VWS V14.01,2013-04-04 22:22:00,
2013-04-04 18:27:00,39.6,31.0,30.19,SW,219,4.0,16.0,71,0.00,,---,0.00,VWS V14.01,2013-04-04 22:27:00,
2013-04-04 18:32:00,39.6,31.3,30.18,SW,224,6.0,19.0,72,0.00,,---,0.00,VWS V14.01,2013-04-04 22:32:00,
2013-04-04 18:37:00,39.5,31.2,30.18,SW,220,4.0,22.0,72,0.00,,---,0.00,VWS V14.01,2013-04-04 22:37:00,
2013-04-04 18:42:00,39.6,31.3,30.19,SSW,206,8.0,22.0,72,0.00,,---,0.00,VWS V14.01,2013-04-04 22:42:00,
2013-04-04 18:47:00,39.6,31.3,30.19,WSW,239,11.0,19.0,72,0.00,,---,0.00,VWS V14.01,2013-04-04 22:47:00,
2013-04-04 18:52:00,39.6,31.3,30.19,SW,214,11.0,33.0,72,0.00,,---,0.00,VWS V14.01,2013-04-04 22:52:00,
2013-04-04 18:57:00,39.6,30.6,30.19,SW,214,10.0,19.0,70,0.00,,---,0.00,VWS V14.01,2013-04-04 22:57:00,
2013-04-04 19:02:00,39.5,29.8,30.19,SW,224,19.0,25.0,68,0.00,,---,0.00,VWS V14.01,2013-04-04 23:02:00,
2013-04-04 19:07:00,39.5,30.5,30.19,WSW,237,14.0,21.0,70,0.00,,---,0.00,VWS V14.01,2013-04-04 23:07:00,
2013-04-04 19:12:00,39.6,30.6,30.19,SSW,205,9.0,21.0,70,0.00,,---,0.00,VWS V14.01,2013-04-04 23:12:00,
2013-04-04 19:17:00,39.6,31.3,30.19,South,181,6.0,21.0,72,0.00,,---,0.00,VWS V14.01,2013-04-04 23:17:00,
2013-04-04 19:22:00,39.5,30.9,30.19,SW,230,10.0,25.0,71,0.00,,---,0.00,VWS V14.01,2013-04-04 23:22:00,
2013-04-04 19:27:00,39.4,31.8,30.19,SW,216,5.0,18.0,74,0.00,,---,0.00,VWS V14.01,2013-04-04 23:27:00,
2013-04-04 19:32:00,39.4,32.5,30.19,SSW,201,6.0,18.0,76,0.00,,---,0.00,VWS V14.01,2013-04-04 23:32:00,
2013-04-04 19:37:00,39.3,31.7,30.19,South,189,17.0,26.0,74,0.00,,---,0.00,VWS V14.01,2013-04-04 23:37:00,
2013-04-04 19:42:00,39.2,32.0,30.19,SW,218,16.0,22.0,75,0.00,,---,0.00,VWS V14.01,2013-04-04 23:42:00,
2013-04-04 19:47:00,39.2,32.3,30.19,SSW,207,13.0,20.0,76,0.00,,---,0.00,VWS V14.01,2013-04-04 23:47:00,
2013-04-04 19:52:00,39.2,32.3,30.19,SW,222,15.0,21.0,76,0.00,,---,0.00,VWS V14.01,2013-04-04 23:52:00,
2013-04-04 19:57:00,39.1,32.2,30.19,SSW,210,11.0,17.0,76,0.00,,---,0.00,VWS V14.01,2013-04-04 23:57:00,
2013-04-04 20:02:00,39.1,32.5,30.20,SW,217,10.0,21.0,77,0.00,,---,0.00,VWS V14.01,2013-04-05 00:02:00,
2013-04-04 20:07:00,39.1,32.5,30.20,SW,225,18.0,20.0,77,0.00,,---,0.00,VWS V14.01,2013-04-05 00:07:00,
2013-04-04 20:12:00,39.1,32.8,30.20,WSW,240,16.0,22.0,78,0.00,,---,0.00,VWS V14.01,2013-04-05 00:12:00,
2013-04-04 20:17:00,39.1,32.5,30.20,SSW,208,14.0,33.0,77,0.00,,---,0.00,VWS V14.01,2013-04-05 00:17:00,
2013-04-04 20:22:00,39.0,32.4,30.20,South,182,9.0,24.0,77,0.00,,---,0.00,VWS V14.01,2013-04-05 00:22:00,
2013-04-04 20:27:00,39.1,33.2,30.20,WSW,237,19.0,25.0,79,0.00,,---,0.00,VWS V14.01,2013-04-05 00:27:00,
2013-04-04 20:32:00,39.1,32.8,30.20,WSW,254,22.0,30.0,78,0.00,,---,0.00,VWS V14.01,2013-04-05 00:32:00,
2013-04-04 20:37:00,39.1,33.5,30.21,SW,224,15.0,31.0,80,0.00,,---,0.00,VWS V14.01,2013-04-05 00:37:00,
2013-04-04 20:42:00,39.2,33.2,30.21,SW,223,5.0,26.0,79,0.00,,---,0.00,VWS V14.01,2013-04-05 00:42:00,
2013-04-04 20:47:00,39.1,32.8,30.20,WSW,243,12.0,33.0,78,0.00,,---,0.00,VWS V14.01,2013-04-05 00:47:00,
2013-04-04 20:52:00,39.1,33.2,30.20,SW,231,11.0,21.0,79,0.00,,---,0.00,VWS V14.01,2013-04-05 00:52:00,
2013-04-04 20:57:00,39.2,33.2,30.19,SW,220,13.0,18.0,79,0.00,,---,0.00,VWS V14.01,2013-04-05 00:57:00,
2013-04-04 21:02:00,39.2,33.2,30.19,SW,219,13.0,24.0,79,0.00,,---,0.00,VWS V14.01,2013-04-05 01:02:00,
2013-04-04 21:07:00,39.2,33.2,30.19,SSW,202,9.0,24.0,79,0.00,,---,0.00,VWS V14.01,2013-04-05 01:07:00,
2013-04-04 21:12:00,39.2,33.2,30.19,SSW,212,14.0,23.0,79,0.00,,---,0.00,VWS V14.01,2013-04-05 01:12:00,
2013-04-04 21:17:00,39.2,33.6,30.19,SW,232,17.0,21.0,80,0.00,,---,0.00,VWS V14.01,2013-04-05 01:17:00,
2013-04-04 21:22:00,39.3,33.7,30.19,SW,225,15.0,25.0,80,0.00,,---,0.00,VWS V14.01,2013-04-05 01:22:00,
2013-04-04 21:27:00,39.3,33.7,30.19,SSW,213,12.0,23.0,80,0.00,,---,0.00,VWS V14.01,2013-04-05 01:27:00,
2013-04-04 21:32:00,39.4,33.8,30.19,SW,224,12.0,23.0,80,0.00,,---,0.00,VWS V14.01,2013-04-05 01:32:00,
2013-04-04 21:37:00,39.4,33.8,30.19,SSW,197,9.0,26.0,80,0.00,,---,0.00,VWS V14.01,2013-04-05 01:37:00,
2013-04-04 21:42:00,39.4,34.1,30.18,SW,231,15.0,20.0,81,0.00,,---,0.00,VWS V14.01,2013-04-05 01:42:00,
2013-04-04 21:47:00,39.4,33.8,30.18,SW,227,9.0,23.0,80,0.00,,---,0.00,VWS V14.01,2013-04-05 01:47:00,
2013-04-04 21:53:00,39.4,33.8,30.18,SW,223,11.0,24.0,80,0.00,,---,0.00,VWS V14.01,2013-04-05 01:53:00,
2013-04-04 21:58:00,39.5,33.8,30.17,WSW,246,6.0,27.0,80,0.00,,---,0.00,VWS V14.01,2013-04-05 01:58:00,
2013-04-04 22:03:00,39.5,34.2,30.17,WSW,239,20.0,21.0,81,0.00,,---,0.00,VWS V14.01,2013-04-05 02:03:00,
2013-04-04 22:08:00,39.4,33.8,30.17,SW,221,14.0,27.0,80,0.00,,---,0.00,VWS V14.01,2013-04-05 02:08:00,
2013-04-04 22:13:00,39.5,34.5,30.17,SW,236,17.0,22.0,82,0.00,,---,0.00,VWS V14.01,2013-04-05 02:13:00,
2013-04-04 22:18:00,39.5,34.5,30.17,WSW,241,24.0,24.0,82,0.00,,---,0.00,VWS V14.01,2013-04-05 02:18:00,
2013-04-04 22:23:00,39.6,34.9,30.18,SW,231,14.0,20.0,83,0.00,,---,0.00,VWS V14.01,2013-04-05 02:23:00,
2013-04-04 22:28:00,39.6,34.9,30.17,SSW,210,9.0,21.0,83,0.00,,---,0.00,VWS V14.01,2013-04-05 02:28:00,
2013-04-04 22:33:00,39.6,34.6,30.17,SW,222,11.0,24.0,82,0.00,,---,0.00,VWS V14.01,2013-04-05 02:33:00,
2013-04-04 22:38:00,39.6,34.3,30.17,WSW,245,13.0,22.0,81,0.00,,---,0.00,VWS V14.01,2013-04-05 02:38:00,
2013-04-04 22:43:00,39.6,34.3,30.17,SSW,207,7.0,27.0,81,0.00,,---,0.00,VWS V14.01,2013-04-05 02:43:00,
2013-04-04 22:48:00,39.6,34.3,30.17,SW,233,10.0,19.0,81,0.00,,---,0.00,VWS V14.01,2013-04-05 02:48:00,
2013-04-04 22:53:00,39.7,34.7,30.17,SW,227,12.0,19.0,82,0.00,,---,0.00,VWS V14.01,2013-04-05 02:53:00,
2013-04-04 22:58:00,39.7,34.7,30.16,SSW,210,17.0,20.0,82,0.00,,---,0.00,VWS V14.01,2013-04-05 02:58:00,
2013-04-04 23:03:00,39.7,34.7,30.16,SW,227,16.0,17.0,82,0.00,,---,0.00,VWS V14.01,2013-04-05 03:03:00,
2013-04-04 23:08:00,39.6,34.6,30.16,SW,226,6.0,24.0,82,0.00,,---,0.00,VWS V14.01,2013-04-05 03:08:00,
2013-04-04 23:13:00,39.7,35.0,30.15,SW,233,13.0,28.0,83,0.00,,---,0.00,VWS V14.01,2013-04-05 03:13:00,
2013-04-04 23:18:00,39.7,34.7,30.15,SW,231,14.0,17.0,82,0.00,,---,0.00,VWS V14.01,2013-04-05 03:18:00,
2013-04-04 23:23:00,39.6,34.6,30.15,SW,220,12.0,23.0,82,0.00,,---,0.00,VWS V14.01,2013-04-05 03:23:00,
2013-04-04 23:28:00,39.7,35.0,30.15,SW,236,11.0,16.0,83,0.00,,---,0.00,VWS V14.01,2013-04-05 03:28:00,
2013-04-04 23:33:00,39.7,35.0,30.14,South,181,10.0,16.0,83,0.00,,---,0.00,VWS V14.01,2013-04-05 03:33:00,
2013-04-04 23:38:00,39.7,34.7,30.14,SW,234,16.0,20.0,82,0.00,,---,0.00,VWS V14.01,2013-04-05 03:38:00,
2013-04-04 23:43:00,39.7,35.0,30.14,WSW,239,14.0,19.0,83,0.00,,---,0.00,VWS V14.01,2013-04-05 03:43:00,
2013-04-04 23:48:00,39.7,35.3,30.14,SW,222,10.0,17.0,84,0.00,,---,0.00,VWS V14.01,2013-04-05 03:48:00,
2013-04-04 23:53:00,39.8,35.4,30.14,SW,218,6.0,17.0,84,0.00,,---,0.00,VWS V14.01,2013-04-05 03:53:00,
2013-04-04 23:58:00,39.8,35.1,30.14,SW,216,12.0,19.0,83,0.00,,---,0.00,VWS V14.01,2013-04-05 03:58:00,